createdAt,value
2019-04-20T00:01:22.884Z,100.00
2019-04-20T00:03:49.034Z,100.00
2019-04-20T00:06:19.557Z,100.00
2019-04-20T00:08:55.656Z,100.00
2019-04-20T00:11:27.448Z,100.00
2019-04-20T00:14:01.274Z,100.00
2019-04-20T00:16:23.220Z,100.00
2019-04-20T00:18:56.684Z,100.00
2019-04-20T00:21:46.918Z,100.00
2019-04-20T00:24:27.322Z,100.00
2019-04-20T00:27:13.599Z,100.00
2019-04-20T00:29:47.972Z,100.00
2019-04-20T00:32:09.825Z,100.00
2019-04-20T00:34:34.808Z,100.00
2019-04-20T00:37:00.296Z,100.00
2019-04-20T00:39:30.081Z,100.00
2019-04-20T00:42:04.395Z,100.00
2019-04-20T00:44:35.893Z,100.00
2019-04-20T00:47:13.300Z,100.00
2019-04-20T00:49:48.286Z,100.00
2019-04-20T00:52:27.395Z,100.00
2019-04-20T00:54:36.943Z,100.00
2019-04-20T00:57:20.434Z,100.00
2019-04-20T00:59:59.136Z,100.00
2019-04-20T01:02:20.974Z,100.00
2019-04-20T01:05:02.540Z,100.00
2019-04-20T01:07:43.924Z,100.00
2019-04-20T01:10:13.188Z,100.00
2019-04-20T01:12:44.469Z,100.00
2019-04-20T01:15:25.573Z,100.00
2019-04-20T01:17:45.981Z,100.00
2019-04-20T01:20:15.595Z,100.00
2019-04-20T01:22:53.087Z,100.00
2019-04-20T01:25:24.821Z,100.00
2019-04-20T01:28:18.332Z,100.00
2019-04-20T01:30:27.873Z,100.00
2019-04-20T01:33:03.942Z,100.00
2019-04-20T01:35:40.919Z,100.00
2019-04-20T01:38:12.421Z,100.00
2019-04-20T01:40:25.485Z,100.00
2019-04-20T01:42:55.382Z,100.00
2019-04-20T01:45:30.803Z,100.00
2019-04-20T01:47:59.439Z,100.00
2019-04-20T01:50:33.259Z,100.00
2019-04-20T01:53:10.207Z,100.00
2019-04-20T01:55:49.006Z,100.00
2019-04-20T02:00:56.353Z,100.00
2019-04-20T02:03:40.414Z,100.00
2019-04-20T02:06:11.596Z,100.00
2019-04-20T02:08:38.197Z,100.00
2019-04-20T02:11:09.544Z,100.00
2019-04-20T02:13:46.711Z,100.00
2019-04-20T02:16:19.108Z,100.00
2019-04-20T02:19:00.471Z,100.00
2019-04-20T02:21:27.652Z,100.00
2019-04-20T02:23:51.509Z,100.00
2019-04-20T02:26:16.263Z,100.00
2019-04-20T02:29:12.336Z,100.00
2019-04-20T02:32:06.618Z,100.00
2019-04-20T02:34:59.830Z,100.00
2019-04-20T02:40:28.782Z,100.00
2019-04-20T02:42:59.787Z,100.00
2019-04-20T02:48:00.845Z,100.00
2019-04-20T02:50:30.483Z,100.00
2019-04-20T02:53:04.589Z,100.00
2019-04-20T02:58:05.338Z,100.00
2019-04-20T03:02:47.361Z,100.00
2019-04-20T03:05:16.454Z,100.00
2019-04-20T03:07:57.428Z,100.00
2019-04-20T03:10:34.297Z,100.00
2019-04-20T03:13:03.946Z,100.00
2019-04-20T03:15:32.840Z,100.00
2019-04-20T03:18:03.417Z,100.00
2019-04-20T03:20:36.327Z,100.00
2019-04-20T03:23:23.494Z,100.00
2019-04-20T03:26:19.200Z,100.00
2019-04-20T03:28:56.656Z,100.00
2019-04-20T03:31:54.176Z,100.00
2019-04-20T03:34:47.453Z,100.00
2019-04-20T03:36:49.560Z,100.00
2019-04-20T03:39:10.059Z,100.00
2019-04-20T03:41:28.204Z,100.00
2019-04-20T03:43:54.140Z,100.00
2019-04-20T03:46:31.124Z,100.00
2019-04-20T03:49:10.661Z,100.00
2019-04-20T03:51:47.215Z,100.00
2019-04-20T03:54:15.979Z,100.00
2019-04-20T03:57:23.608Z,100.00
2019-04-20T04:00:01.814Z,100.00
2019-04-20T04:03:02.986Z,100.00
2019-04-20T04:05:33.991Z,100.00
2019-04-20T04:08:02.305Z,100.00
2019-04-20T04:10:30.333Z,100.00
2019-04-20T04:13:14.828Z,100.00
2019-04-20T04:15:52.265Z,100.00
2019-04-20T04:18:24.174Z,100.00
2019-04-20T04:20:56.151Z,100.00
2019-04-20T04:23:36.690Z,100.00
2019-04-20T04:26:08.656Z,100.00
2019-04-20T04:28:41.022Z,100.00
2019-04-20T04:31:13.996Z,100.00
2019-04-20T04:33:59.354Z,100.00
2019-04-20T04:36:13.560Z,100.00
2019-04-20T04:38:51.097Z,100.00
2019-04-20T04:41:25.579Z,100.00
2019-04-20T04:43:49.454Z,100.00
2019-04-20T04:46:01.883Z,100.00
2019-04-20T04:48:35.816Z,100.00
2019-04-20T04:51:09.035Z,100.00
2019-04-20T04:53:46.862Z,100.00
2019-04-20T04:56:11.238Z,100.00
2019-04-20T04:58:38.467Z,100.00
2019-04-20T05:01:15.959Z,100.00
2019-04-20T05:04:02.827Z,100.00
2019-04-20T05:06:45.800Z,100.00
2019-04-20T05:09:05.251Z,100.00
2019-04-20T05:11:32.272Z,100.00
2019-04-20T05:14:06.755Z,100.00
2019-04-20T05:16:51.004Z,100.00
2019-04-20T05:19:23.577Z,100.00
2019-04-20T05:22:20.614Z,100.00
2019-04-20T05:25:01.178Z,100.00
2019-04-20T05:27:46.536Z,100.00
2019-04-20T05:30:01.133Z,100.00
2019-04-20T05:32:41.306Z,100.00
2019-04-20T05:35:40.756Z,100.00
2019-04-20T05:38:01.152Z,100.00
2019-04-20T05:40:26.197Z,100.00
2019-04-20T05:43:16.788Z,100.00
2019-04-20T05:45:41.370Z,100.00
2019-04-20T05:48:14.285Z,100.00
2019-04-20T05:50:48.249Z,100.00
2019-04-20T05:53:22.176Z,100.00
2019-04-20T05:55:51.577Z,100.00
2019-04-20T05:58:29.178Z,100.00
2019-04-20T06:01:02.776Z,100.00
2019-04-20T06:03:28.819Z,100.00
2019-04-20T06:06:05.157Z,100.00
2019-04-20T06:08:38.966Z,100.00
2019-04-20T06:11:03.849Z,100.00
2019-04-20T06:13:37.883Z,100.00
2019-04-20T06:16:31.578Z,100.00
2019-04-20T06:19:09.053Z,100.00
2019-04-20T06:21:43.326Z,100.00
2019-04-20T06:24:24.939Z,94.30
2019-04-20T06:29:18.292Z,94.51
2019-04-20T06:31:53.460Z,92.04
2019-04-20T06:34:33.392Z,92.07
2019-04-20T06:36:57.364Z,90.49
2019-04-20T06:47:09.335Z,89.18
2019-04-20T06:49:36.660Z,87.70
2019-04-20T06:55:14.082Z,83.34
2019-04-20T06:57:45.445Z,80.55
2019-04-20T07:00:18.015Z,80.56
2019-04-20T07:02:53.025Z,82.38
2019-04-20T07:05:22.288Z,82.18
2019-04-20T07:07:54.733Z,83.82
2019-04-20T07:10:28.615Z,85.38
2019-04-20T07:12:49.583Z,85.61
2019-04-20T07:15:22.662Z,83.52
2019-04-20T07:21:05.515Z,85.86
2019-04-20T07:23:40.762Z,83.07
2019-04-20T07:26:17.061Z,82.42
2019-04-20T07:28:48.548Z,84.15
2019-04-20T07:31:06.755Z,83.39
2019-04-20T07:33:47.981Z,82.80
2019-04-20T07:36:20.060Z,78.93
2019-04-20T07:38:51.280Z,79.25
2019-04-20T07:41:29.853Z,73.95
2019-04-20T07:44:01.651Z,74.20
2019-04-20T07:46:34.854Z,71.91
2019-04-20T07:48:54.318Z,72.10
2019-04-20T07:51:12.540Z,70.23
2019-04-20T07:53:57.507Z,69.59
2019-04-20T07:56:30.504Z,68.92
2019-04-20T07:58:48.010Z,71.07
2019-04-20T08:01:45.342Z,69.28
2019-04-20T08:04:17.170Z,70.50
2019-04-20T08:06:38.016Z,71.94
2019-04-20T08:09:14.525Z,69.92
2019-04-20T08:11:55.205Z,70.71
2019-04-20T08:14:24.188Z,70.88
2019-04-20T08:17:09.715Z,68.91
2019-04-20T08:19:23.490Z,68.32
2019-04-20T08:22:04.666Z,67.39
2019-04-20T08:24:30.549Z,68.44
2019-04-20T08:26:50.283Z,65.38
2019-04-20T08:29:45.089Z,67.74
2019-04-20T08:32:38.821Z,66.42
2019-04-20T08:35:22.853Z,66.56
2019-04-20T08:37:48.922Z,66.02
2019-04-20T08:40:19.788Z,67.21
2019-04-20T08:43:00.577Z,65.27
2019-04-20T08:45:23.621Z,64.36
2019-04-20T08:47:56.423Z,66.09
2019-04-20T08:50:22.565Z,64.75
2019-04-20T08:55:23.996Z,62.61
2019-04-20T08:57:37.911Z,64.44
2019-04-20T09:00:09.453Z,64.50
2019-04-20T09:02:43.373Z,64.93
2019-04-20T09:05:24.939Z,67.27
2019-04-20T09:07:54.166Z,66.42
2019-04-20T09:10:35.738Z,68.56
2019-04-20T09:12:58.605Z,69.90
2019-04-20T09:15:17.074Z,70.54
2019-04-20T09:18:01.922Z,70.07
2019-04-20T09:20:42.349Z,70.78
2019-04-20T09:23:25.081Z,71.39
2019-04-20T09:28:42.463Z,72.28
2019-04-20T09:31:39.525Z,71.07
2019-04-20T09:34:15.820Z,71.42
2019-04-20T09:37:14.167Z,70.23
2019-04-20T09:40:04.838Z,71.40
2019-04-20T09:42:23.230Z,65.39
2019-04-20T09:44:55.947Z,67.74
2019-04-20T09:47:33.824Z,63.35
2019-04-20T09:50:10.880Z,62.05
2019-04-20T09:52:38.163Z,61.26
2019-04-20T09:55:10.519Z,61.33
2019-04-20T09:57:50.310Z,63.55
2019-04-20T10:00:16.854Z,65.70
2019-04-20T10:02:34.768Z,65.07
2019-04-20T10:05:05.239Z,64.51
2019-04-20T10:07:37.272Z,64.95
2019-04-20T10:10:20.264Z,64.20
2019-04-20T10:12:39.853Z,62.30
2019-04-20T10:15:15.645Z,63.24
2019-04-20T10:17:41.440Z,63.88
2019-04-20T10:20:19.333Z,63.64
2019-04-20T10:22:42.620Z,60.48
2019-04-20T10:25:12.873Z,59.81
2019-04-20T10:27:43.624Z,59.36
2019-04-20T10:30:14.583Z,55.95
2019-04-20T10:32:47.268Z,52.89
2019-04-20T10:35:18.581Z,54.41
2019-04-20T10:37:51.543Z,55.88
2019-04-20T10:40:36.851Z,57.07
2019-04-20T10:42:53.152Z,58.12
2019-04-20T10:45:23.005Z,58.83
2019-04-20T10:47:54.968Z,57.80
2019-04-20T10:50:25.123Z,57.18
2019-04-20T10:52:56.002Z,59.09
2019-04-20T10:55:27.144Z,54.77
2019-04-20T10:57:57.684Z,51.40
2019-04-20T11:00:46.596Z,50.48
2019-04-20T11:03:17.634Z,47.96
2019-04-20T11:05:48.767Z,45.45
2019-04-20T11:08:20.214Z,44.75
2019-04-20T11:11:01.466Z,41.70
2019-04-20T11:13:21.544Z,40.55
2019-04-20T11:15:52.558Z,38.19
2019-04-20T11:18:22.294Z,41.95
2019-04-20T11:20:53.198Z,40.73
2019-04-20T11:23:22.922Z,41.00
2019-04-20T11:25:52.759Z,38.64
2019-04-20T11:28:22.433Z,39.21
2019-04-20T11:30:52.188Z,39.52
2019-04-20T11:33:22.361Z,41.15
2019-04-20T11:35:52.004Z,39.90
2019-04-20T11:38:22.030Z,38.84
2019-04-20T11:41:04.170Z,37.94
2019-04-20T11:43:23.976Z,40.36
2019-04-20T11:45:54.429Z,38.89
2019-04-20T11:48:25.470Z,37.05
2019-04-20T11:50:55.815Z,34.45
2019-04-20T11:53:26.887Z,31.25
2019-04-20T11:55:58.383Z,30.08
2019-04-20T11:58:28.282Z,32.39
2019-04-20T12:01:04.176Z,37.34
2019-04-20T12:03:40.154Z,37.28
2019-04-20T12:06:04.766Z,34.80
2019-04-20T12:08:36.921Z,30.24
2019-04-20T12:11:21.667Z,28.48
2019-04-20T12:13:36.558Z,26.96
2019-04-20T12:16:07.616Z,27.10
2019-04-20T12:18:37.953Z,23.21
2019-04-20T12:21:08.542Z,27.13
2019-04-20T12:23:38.327Z,27.64
2019-04-20T12:26:08.945Z,29.42
2019-04-20T12:28:40.087Z,30.30
2019-04-20T12:31:13.719Z,27.94
2019-04-20T12:33:42.226Z,27.58
2019-04-20T12:36:12.475Z,29.31
2019-04-20T12:38:43.366Z,29.69
2019-04-20T12:41:14.473Z,32.80
2019-04-20T12:43:45.684Z,34.40
2019-04-20T12:46:18.356Z,33.25
2019-04-20T12:48:47.428Z,36.61
2019-04-20T12:51:25.239Z,37.33
2019-04-20T12:53:52.754Z,36.97
2019-04-20T12:56:22.486Z,35.63
2019-04-20T12:58:53.526Z,35.78
2019-04-20T13:01:24.544Z,36.66
2019-04-20T13:03:55.365Z,36.16
2019-04-20T13:06:25.816Z,36.79
2019-04-20T13:08:58.624Z,36.67
2019-04-20T13:11:38.618Z,34.66
2019-04-20T13:14:42.337Z,32.50
2019-04-20T13:17:12.384Z,31.76
2019-04-20T13:19:42.200Z,32.41
2019-04-20T13:22:12.969Z,34.48
2019-04-20T13:24:43.181Z,34.04
2019-04-20T13:27:13.211Z,36.95
2019-04-20T13:29:47.208Z,36.02
2019-04-20T13:32:15.934Z,34.73
2019-04-20T13:34:46.584Z,35.80
2019-04-20T13:37:16.291Z,34.80
2019-04-20T13:39:46.882Z,35.43
2019-04-20T13:42:22.712Z,36.09
2019-04-20T13:44:48.743Z,37.52
2019-04-20T13:47:19.099Z,38.97
2019-04-20T13:49:49.302Z,36.98
2019-04-20T13:52:18.896Z,40.12
2019-04-20T13:54:49.688Z,38.73
2019-04-20T13:57:23.985Z,39.11
2019-04-20T13:59:58.037Z,36.93
2019-04-20T14:02:48.854Z,35.78
2019-04-20T14:05:31.139Z,37.77
2019-04-20T14:08:03.116Z,37.63
2019-04-20T14:10:33.408Z,37.42
2019-04-20T14:13:11.266Z,35.78
2019-04-20T14:15:35.292Z,37.87
2019-04-20T14:18:05.006Z,35.40
2019-04-20T14:20:34.583Z,35.38
2019-04-20T14:23:05.252Z,35.06
2019-04-20T14:25:35.114Z,34.68
2019-04-20T14:28:04.987Z,34.64
2019-04-20T14:30:35.160Z,35.95
2019-04-20T14:33:05.286Z,36.88
2019-04-20T14:35:34.981Z,36.87
2019-04-20T14:38:05.899Z,36.42
2019-04-20T14:40:36.676Z,37.64
2019-04-20T14:43:06.818Z,36.94
2019-04-20T14:45:36.731Z,38.58
2019-04-20T14:48:06.272Z,39.42
2019-04-20T14:50:35.965Z,40.84
2019-04-20T14:53:05.693Z,41.64
2019-04-20T14:55:35.553Z,41.65
2019-04-20T14:58:09.539Z,41.30
2019-04-20T15:00:53.662Z,42.95
2019-04-20T15:03:38.333Z,43.16
2019-04-20T15:06:07.486Z,41.95
2019-04-20T15:08:38.682Z,41.74
2019-04-20T15:11:09.290Z,41.09
2019-04-20T15:13:40.521Z,40.62
2019-04-20T15:16:10.897Z,41.32
2019-04-20T15:18:45.550Z,42.17
2019-04-20T15:21:17.628Z,40.29
2019-04-20T15:23:47.906Z,41.76
2019-04-20T15:26:18.438Z,41.51
2019-04-20T15:28:48.423Z,39.23
2019-04-20T15:31:18.451Z,40.54
2019-04-20T15:33:48.873Z,41.30
2019-04-20T15:36:18.519Z,42.53
2019-04-20T15:38:49.400Z,42.67
2019-04-20T15:41:19.002Z,42.71
2019-04-20T15:43:49.102Z,43.40
2019-04-20T15:46:19.415Z,44.58
2019-04-20T15:48:50.229Z,45.58
2019-04-20T15:51:19.906Z,45.63
2019-04-20T15:53:49.604Z,46.40
2019-04-20T15:56:20.606Z,47.49
2019-04-20T15:58:50.547Z,48.08
2019-04-20T16:01:22.816Z,47.44
2019-04-20T16:04:01.340Z,48.72
2019-04-20T16:06:31.585Z,48.46
2019-04-20T16:09:04.185Z,49.12
2019-04-20T16:11:35.075Z,50.95
2019-04-20T16:14:05.367Z,49.35
2019-04-20T16:16:35.607Z,51.29
2019-04-20T16:19:15.930Z,50.68
2019-04-20T16:21:37.484Z,49.77
2019-04-20T16:24:16.919Z,50.89
2019-04-20T16:27:05.503Z,52.23
2019-04-20T16:29:35.588Z,53.98
2019-04-20T16:32:06.635Z,52.84
2019-04-20T16:34:37.151Z,50.86
2019-04-20T16:37:08.620Z,52.73
2019-04-20T16:39:38.687Z,51.50
2019-04-20T16:42:09.980Z,52.86
2019-04-20T16:44:40.987Z,52.79
2019-04-20T16:47:10.660Z,51.32
2019-04-20T16:49:41.163Z,52.41
2019-04-20T16:52:10.744Z,52.61
2019-04-20T16:54:41.727Z,53.92
2019-04-20T16:57:13.088Z,54.83
2019-04-20T16:59:47.065Z,56.05
2019-04-20T17:02:16.561Z,57.56
2019-04-20T17:04:47.121Z,59.08
2019-04-20T17:07:39.282Z,61.09
2019-04-20T17:10:09.765Z,63.52
2019-04-20T17:12:39.955Z,65.16
2019-04-20T17:15:09.899Z,67.09
2019-04-20T17:17:39.937Z,67.43
2019-04-20T17:20:11.469Z,69.34
2019-04-20T17:22:42.005Z,68.57
2019-04-20T17:25:12.307Z,69.53
2019-04-20T17:28:07.049Z,70.76
2019-04-20T17:31:00.897Z,71.94
2019-04-20T17:34:06.580Z,72.39
2019-04-20T17:36:31.249Z,73.51
2019-04-20T17:39:03.719Z,74.20
2019-04-20T17:41:48.852Z,74.87
2019-04-20T17:44:21.030Z,74.91
2019-04-20T17:46:45.243Z,75.38
2019-04-20T17:49:21.011Z,75.84
2019-04-20T17:51:58.209Z,75.74
2019-04-20T17:54:22.466Z,76.56
2019-04-20T17:56:52.318Z,77.55
2019-04-20T17:59:22.355Z,78.17
2019-04-20T18:02:26.612Z,78.60
2019-04-20T18:05:20.392Z,78.84
2019-04-20T18:07:58.938Z,78.93
2019-04-20T18:10:16.098Z,79.25
2019-04-20T18:12:32.781Z,79.26
2019-04-20T18:15:16.859Z,79.49
2019-04-20T18:18:08.421Z,79.26
2019-04-20T18:20:30.519Z,79.52
2019-04-20T18:23:00.504Z,79.99
2019-04-20T18:25:58.830Z,80.22
2019-04-20T18:28:16.167Z,80.67
2019-04-20T18:30:48.841Z,80.54
2019-04-20T18:33:11.645Z,81.15
2019-04-20T18:35:46.024Z,80.61
2019-04-20T18:38:16.597Z,80.78
2019-04-20T18:40:53.365Z,80.54
2019-04-20T18:43:22.046Z,80.83
2019-04-20T18:46:08.071Z,80.44
2019-04-20T18:48:43.759Z,79.95
2019-04-20T18:50:53.467Z,81.02
2019-04-20T18:53:31.832Z,82.29
2019-04-20T18:55:56.054Z,82.36
2019-04-20T18:58:24.910Z,82.83
2019-04-20T19:00:55.496Z,82.42
2019-04-20T19:03:32.696Z,82.54
2019-04-20T19:05:57.932Z,83.19
2019-04-20T19:08:35.016Z,84.11
2019-04-20T19:11:06.937Z,83.80
2019-04-20T19:13:49.220Z,83.69
2019-04-20T19:16:34.776Z,83.69
2019-04-20T19:19:24.269Z,84.15
2019-04-20T19:21:45.939Z,84.03
2019-04-20T19:24:19.353Z,83.87
2019-04-20T19:26:54.514Z,84.03
2019-04-20T19:29:31.345Z,84.41
2019-04-20T19:32:15.825Z,85.21
2019-04-20T19:34:36.462Z,84.18
2019-04-20T19:37:04.059Z,83.27
2019-04-20T19:39:43.606Z,82.58
2019-04-20T19:42:11.743Z,82.04
2019-04-20T19:44:49.520Z,82.72
2019-04-20T19:47:21.370Z,82.22
2019-04-20T19:49:44.015Z,82.14
2019-04-20T19:55:00.003Z,82.47
2019-04-20T19:57:35.115Z,82.52
2019-04-20T19:59:49.488Z,81.08
2019-04-20T20:02:13.904Z,81.06
2019-04-20T20:04:49.282Z,81.72
2019-04-20T20:07:21.966Z,81.83
2019-04-20T20:09:53.123Z,82.64
2019-04-20T20:12:20.800Z,83.12
2019-04-20T20:14:51.306Z,83.38
2019-04-20T20:17:45.587Z,83.79
2019-04-20T20:20:19.957Z,83.21
2019-04-20T20:22:32.614Z,83.75
2019-04-20T20:24:54.894Z,84.06
2019-04-20T20:27:32.622Z,84.05
2019-04-20T20:30:05.616Z,85.01
2019-04-20T20:32:47.950Z,85.43
2019-04-20T20:35:05.638Z,86.05
2019-04-20T20:37:39.675Z,86.55
2019-04-20T20:40:15.207Z,87.77
2019-04-20T20:42:49.128Z,87.96
2019-04-20T20:45:16.041Z,88.54
2019-04-20T20:47:53.782Z,88.09
2019-04-20T20:50:25.655Z,88.23
2019-04-20T20:52:57.895Z,88.72
2019-04-20T20:55:22.103Z,89.32
2019-04-20T20:57:49.501Z,89.55
2019-04-20T21:00:23.925Z,89.25
2019-04-20T21:02:52.839Z,89.78
2019-04-20T21:05:15.784Z,90.86
2019-04-20T21:07:48.297Z,91.29
2019-04-20T21:10:25.875Z,91.29
2019-04-20T21:12:54.114Z,91.60
2019-04-20T21:15:22.832Z,91.50
2019-04-20T21:18:17.408Z,91.50
2019-04-20T21:20:44.914Z,91.62
2019-04-20T21:23:07.309Z,91.82
2019-04-20T21:25:37.056Z,92.16
2019-04-20T21:28:02.542Z,92.29
2019-04-20T21:30:38.417Z,92.45
2019-04-20T21:33:06.015Z,93.30
2019-04-20T21:35:38.210Z,94.00
2019-04-20T21:38:09.673Z,94.59
2019-04-20T21:40:41.374Z,94.61
2019-04-20T21:43:10.985Z,94.98
2019-04-20T21:45:49.794Z,94.58
2019-04-20T21:48:31.686Z,94.26
2019-04-20T21:51:01.525Z,94.23
2019-04-20T21:53:21.343Z,94.45
2019-04-20T21:55:46.322Z,94.48
2019-04-20T21:58:18.409Z,94.26
2019-04-20T22:01:06.690Z,94.29
2019-04-20T22:03:26.831Z,94.39
2019-04-20T22:06:06.918Z,94.43
2019-04-20T22:08:39.483Z,94.71
2019-04-20T22:11:08.541Z,94.85
2019-04-20T22:13:42.111Z,95.22
2019-04-20T22:16:12.448Z,94.84
2019-04-20T22:18:59.187Z,94.49
2019-04-20T22:21:21.033Z,94.50
2019-04-20T22:24:00.542Z,94.48
2019-04-20T22:26:25.387Z,94.76
2019-04-20T22:28:47.941Z,95.82
2019-04-20T22:31:18.328Z,96.83
2019-04-20T22:33:48.935Z,97.54
2019-04-20T22:36:20.254Z,98.22
2019-04-20T22:39:09.554Z,99.11
2019-04-20T22:41:56.337Z,100.00
2019-04-20T22:44:26.672Z,100.00
2019-04-20T22:46:54.701Z,99.94
2019-04-20T22:49:40.062Z,99.82
2019-04-20T22:52:06.154Z,99.31
2019-04-20T22:54:43.315Z,98.49
2019-04-20T22:57:09.367Z,98.30
2019-04-20T22:59:39.874Z,98.51
2019-04-20T23:02:03.952Z,98.15
2019-04-20T23:04:33.104Z,98.43
2019-04-20T23:07:03.124Z,98.76
2019-04-20T23:09:39.471Z,98.87
2019-04-20T23:12:11.219Z,98.90
2019-04-20T23:14:36.381Z,99.22
2019-04-20T23:17:06.418Z,99.88
2019-04-20T23:19:43.513Z,100.00
2019-04-20T23:22:10.495Z,100.00
2019-04-20T23:24:39.342Z,100.00
2019-04-20T23:27:14.049Z,100.00
2019-04-20T23:29:41.698Z,100.00
2019-04-20T23:32:14.186Z,100.00
2019-04-20T23:34:44.638Z,100.00
2019-04-20T23:37:21.443Z,100.00
2019-04-20T23:39:49.106Z,100.00
2019-04-20T23:42:21.938Z,100.00
2019-04-20T23:45:00.394Z,100.00
2019-04-20T23:47:45.795Z,100.00
2019-04-20T23:50:30.573Z,100.00
2019-04-20T23:53:06.601Z,100.00
2019-04-20T23:55:16.992Z,100.00
2019-04-20T23:57:50.590Z,100.00
